DAL730 KATL-KTPA
Flight info
| Callsign | DAL730 |
|---|---|
| Flight time | 1h 12m |
| Altitude | 36000 |
| Route | BANNG3 LUCKK HONID MAATY5 |
| Aircraft | A20N/M-SDE2E3FGHIRWXY/LB1 |
Departure
| Time | 2026-05-03 22:21 |
|---|---|
| Airport | Hartsfield Jackson Atlanta International Airport (KATL) |
Arrival
| Time | 2026-05-03 23:33 |
|---|---|
| Airport | Tampa International Airport (KTPA) |
| Time | Latitude | Longitude | Altitude | Speed | Heading |
|---|---|---|---|---|---|
| 2026-05-03 21:43 | 33.64018 | -84.43330 | 1006 ft | 0 kts | 89° |
| 2026-05-03 21:44 | 33.64019 | -84.43312 | 1006 ft | 0 kts | 88° |
| 2026-05-03 21:48 | 33.64057 | -84.43322 | 1006 ft | 0 kts | 90° |
| 2026-05-03 21:50 | 33.64057 | -84.43312 | 1006 ft | 0 kts | 90° |
| 2026-05-03 22:09 | 33.64057 | -84.43313 | 1006 ft | 1 kts | 90° |
| 2026-05-03 22:10 | 33.64061 | -84.43375 | 1006 ft | 4 kts | 119° |
| 2026-05-03 22:10 | 33.64077 | -84.43392 | 1006 ft | 2 kts | 178° |
| 2026-05-03 22:10 | 33.64079 | -84.43393 | 1006 ft | 0 kts | 180° |
| 2026-05-03 22:12 | 33.64064 | -84.43393 | 1006 ft | 7 kts | 181° |
| 2026-05-03 22:12 | 33.63962 | -84.43392 | 1006 ft | 20 kts | 178° |
| 2026-05-03 22:13 | 33.63811 | -84.43395 | 1006 ft | 16 kts | 180° |
| 2026-05-03 22:13 | 33.63688 | -84.43373 | 1006 ft | 18 kts | 137° |
| 2026-05-03 22:13 | 33.63665 | -84.43220 | 1006 ft | 21 kts | 93° |
| 2026-05-03 22:13 | 33.63664 | -84.43025 | 1006 ft | 27 kts | 88° |
| 2026-05-03 22:14 | 33.63663 | -84.42781 | 1006 ft | 31 kts | 91° |
| 2026-05-03 22:14 | 33.63656 | -84.42527 | 1006 ft | 30 kts | 92° |
| 2026-05-03 22:14 | 33.63657 | -84.42264 | 1006 ft | 33 kts | 88° |
| 2026-05-03 22:14 | 33.63655 | -84.41975 | 1006 ft | 36 kts | 89° |
| 2026-05-03 22:15 | 33.63657 | -84.41736 | 1006 ft | 29 kts | 89° |
| 2026-05-03 22:15 | 33.63655 | -84.41596 | 1006 ft | 27 kts | 89° |
| 2026-05-03 22:15 | 33.63654 | -84.41377 | 1005 ft | 23 kts | 90° |
| 2026-05-03 22:15 | 33.63655 | -84.41213 | 1006 ft | 17 kts | 90° |
| 2026-05-03 22:16 | 33.63656 | -84.41058 | 1006 ft | 18 kts | 90° |
| 2026-05-03 22:16 | 33.63656 | -84.40956 | 1006 ft | 4 kts | 90° |
| 2026-05-03 22:16 | 33.63656 | -84.40953 | 1006 ft | 1 kts | 91° |
| 2026-05-03 22:16 | 33.63651 | -84.40931 | 1006 ft | 12 kts | 117° |
| 2026-05-03 22:17 | 33.63619 | -84.40909 | 1006 ft | 7 kts | 174° |
| 2026-05-03 22:17 | 33.63583 | -84.40908 | 1006 ft | 0 kts | 180° |
| 2026-05-03 22:18 | 33.63579 | -84.40908 | 1006 ft | 2 kts | 180° |
| 2026-05-03 22:18 | 33.63544 | -84.40908 | 1006 ft | 8 kts | 180° |
| 2026-05-03 22:18 | 33.63483 | -84.40929 | 1007 ft | 11 kts | 224° |
| 2026-05-03 22:19 | 33.63470 | -84.40970 | 1007 ft | 0 kts | 267° |
| 2026-05-03 22:20 | 33.63470 | -84.40985 | 1006 ft | 14 kts | 269° |
| 2026-05-03 22:20 | 33.63471 | -84.41463 | 1006 ft | 101 kts | 269° |
| 2026-05-03 22:20 | 33.63470 | -84.42619 | 1088 ft | 175 kts | 270° |
| 2026-05-03 22:21 | 33.63453 | -84.44170 | 1679 ft | 208 kts | 270° |
| 2026-05-03 22:21 | 33.63448 | -84.45888 | 2792 ft | 209 kts | 270° |
| 2026-05-03 22:21 | 33.63435 | -84.47617 | 3963 ft | 222 kts | 270° |
| 2026-05-03 22:21 | 33.63428 | -84.49489 | 4826 ft | 244 kts | 270° |
| 2026-05-03 22:22 | 33.63428 | -84.51538 | 5805 ft | 257 kts | 271° |
| 2026-05-03 22:22 | 33.63428 | -84.53635 | 6968 ft | 265 kts | 271° |
| 2026-05-03 22:22 | 33.63430 | -84.55826 | 8161 ft | 267 kts | 271° |
| 2026-05-03 22:22 | 33.63432 | -84.57953 | 9365 ft | 271 kts | 271° |
| 2026-05-03 22:23 | 33.63434 | -84.60183 | 10527 ft | 276 kts | 271° |
| 2026-05-03 22:23 | 33.63435 | -84.62400 | 11630 ft | 279 kts | 270° |
| 2026-05-03 22:23 | 33.63078 | -84.64669 | 12724 ft | 287 kts | 250° |
| 2026-05-03 22:23 | 33.62010 | -84.66639 | 13413 ft | 297 kts | 227° |
| 2026-05-03 22:24 | 33.60339 | -84.68068 | 13765 ft | 304 kts | 213° |
| 2026-05-03 22:24 | 33.58527 | -84.69096 | 13925 ft | 308 kts | 200° |
| 2026-05-03 22:24 | 33.56434 | -84.69472 | 13984 ft | 313 kts | 182° |
| 2026-05-03 22:24 | 33.54346 | -84.69158 | 13992 ft | 315 kts | 173° |
| 2026-05-03 22:25 | 33.52243 | -84.68725 | 13994 ft | 316 kts | 173° |
| 2026-05-03 22:25 | 33.50144 | -84.68312 | 14131 ft | 319 kts | 174° |
| 2026-05-03 22:25 | 33.47996 | -84.67902 | 14810 ft | 321 kts | 174° |
| 2026-05-03 22:25 | 33.45905 | -84.67507 | 15877 ft | 320 kts | 174° |
| 2026-05-03 22:26 | 33.43730 | -84.67097 | 16828 ft | 325 kts | 173° |
| 2026-05-03 22:26 | 33.41524 | -84.66451 | 17804 ft | 332 kts | 165° |
| 2026-05-03 22:26 | 33.39429 | -84.65417 | 18686 ft | 339 kts | 159° |
| 2026-05-03 22:26 | 33.37348 | -84.64277 | 19442 ft | 345 kts | 159° |
| 2026-05-03 22:27 | 33.35218 | -84.63122 | 19742 ft | 367 kts | 159° |
| 2026-05-03 22:27 | 33.32885 | -84.61864 | 19957 ft | 389 kts | 159° |
| 2026-05-03 22:27 | 33.31277 | -84.60998 | 20212 ft | 398 kts | 159° |
| 2026-05-03 22:27 | 33.28015 | -84.59237 | 21191 ft | 404 kts | 159° |
| 2026-05-03 22:28 | 33.26422 | -84.58377 | 21688 ft | 406 kts | 159° |
| 2026-05-03 22:28 | 33.23042 | -84.56555 | 22675 ft | 412 kts | 159° |
| 2026-05-03 22:28 | 33.21300 | -84.55618 | 23157 ft | 415 kts | 159° |
| 2026-05-03 22:28 | 33.18776 | -84.54262 | 23837 ft | 420 kts | 159° |
| 2026-05-03 22:29 | 33.16179 | -84.52867 | 24464 ft | 423 kts | 159° |
| 2026-05-03 22:29 | 33.13608 | -84.51487 | 25055 ft | 426 kts | 160° |
| 2026-05-03 22:29 | 33.10903 | -84.50036 | 25663 ft | 430 kts | 160° |
| 2026-05-03 22:29 | 33.08193 | -84.48584 | 26254 ft | 433 kts | 160° |
| 2026-05-03 22:30 | 33.05595 | -84.47192 | 26817 ft | 437 kts | 160° |
| 2026-05-03 22:30 | 33.02848 | -84.45721 | 27366 ft | 440 kts | 161° |
| 2026-05-03 22:30 | 33.00211 | -84.44310 | 27983 ft | 440 kts | 162° |
| 2026-05-03 22:30 | 32.97399 | -84.43082 | 28470 ft | 439 kts | 169° |
| 2026-05-03 22:31 | 32.94575 | -84.42328 | 28964 ft | 436 kts | 177° |
| 2026-05-03 22:31 | 32.91639 | -84.42003 | 29468 ft | 432 kts | 184° |
| 2026-05-03 22:31 | 32.88761 | -84.41959 | 29934 ft | 434 kts | 185° |
| 2026-05-03 22:31 | 32.85945 | -84.41913 | 30374 ft | 437 kts | 185° |
| 2026-05-03 22:32 | 32.83010 | -84.41859 | 30831 ft | 438 kts | 185° |
| 2026-05-03 22:32 | 32.80039 | -84.41801 | 31293 ft | 439 kts | 185° |
| 2026-05-03 22:32 | 32.77071 | -84.41740 | 31851 ft | 438 kts | 186° |
| 2026-05-03 22:32 | 32.74097 | -84.41675 | 32542 ft | 432 kts | 186° |
| 2026-05-03 22:33 | 32.71259 | -84.41614 | 33213 ft | 428 kts | 187° |
| 2026-05-03 22:33 | 32.68396 | -84.41556 | 33813 ft | 425 kts | 187° |
| 2026-05-03 22:33 | 32.65538 | -84.41499 | 34354 ft | 422 kts | 187° |
| 2026-05-03 22:33 | 32.62682 | -84.41444 | 34784 ft | 421 kts | 187° |
| 2026-05-03 22:34 | 32.59832 | -84.41390 | 35172 ft | 421 kts | 187° |
| 2026-05-03 22:34 | 32.57035 | -84.41336 | 35551 ft | 421 kts | 187° |
| 2026-05-03 22:34 | 32.54227 | -84.41281 | 35928 ft | 421 kts | 187° |
| 2026-05-03 22:34 | 32.51360 | -84.41224 | 36322 ft | 420 kts | 187° |
| 2026-05-03 22:35 | 32.48507 | -84.41166 | 36665 ft | 420 kts | 188° |
| 2026-05-03 22:35 | 32.45753 | -84.41110 | 36982 ft | 418 kts | 188° |
| 2026-05-03 22:35 | 32.42913 | -84.41052 | 37102 ft | 417 kts | 188° |
| 2026-05-03 22:36 | 32.37304 | -84.40943 | 37118 ft | 417 kts | 188° |
| 2026-05-03 22:36 | 32.31681 | -84.40833 | 37120 ft | 417 kts | 188° |
| 2026-05-03 22:37 | 32.26224 | -84.40725 | 37119 ft | 416 kts | 188° |
| 2026-05-03 22:37 | 32.20602 | -84.40611 | 37113 ft | 415 kts | 188° |
| 2026-05-03 22:38 | 32.15059 | -84.40499 | 37108 ft | 412 kts | 188° |
| 2026-05-03 22:38 | 32.09466 | -84.40389 | 37118 ft | 412 kts | 189° |
| 2026-05-03 22:39 | 32.03928 | -84.40285 | 37121 ft | 415 kts | 188° |
| 2026-05-03 22:39 | 31.98350 | -84.40173 | 37122 ft | 414 kts | 188° |
| 2026-05-03 22:40 | 31.92796 | -84.40061 | 37121 ft | 412 kts | 189° |
| 2026-05-03 22:40 | 31.87278 | -84.39951 | 37123 ft | 411 kts | 189° |
| 2026-05-03 22:41 | 31.81842 | -84.39847 | 37126 ft | 412 kts | 189° |
| 2026-05-03 22:41 | 31.76173 | -84.39736 | 37131 ft | 413 kts | 189° |
| 2026-05-03 22:42 | 31.70400 | -84.39622 | 37138 ft | 413 kts | 189° |
| 2026-05-03 22:42 | 31.64937 | -84.39513 | 37124 ft | 411 kts | 189° |
| 2026-05-03 22:43 | 31.59482 | -84.39482 | 36989 ft | 407 kts | 191° |
| 2026-05-03 22:43 | 31.56719 | -84.39498 | 36412 ft | 408 kts | 191° |
| 2026-05-03 22:43 | 31.53975 | -84.39518 | 35512 ft | 414 kts | 190° |
| 2026-05-03 22:43 | 31.51162 | -84.39537 | 34503 ft | 421 kts | 189° |
| 2026-05-03 22:44 | 31.48289 | -84.39549 | 33513 ft | 424 kts | 189° |
| 2026-05-03 22:44 | 31.45439 | -84.39554 | 32727 ft | 423 kts | 189° |
| 2026-05-03 22:44 | 31.42605 | -84.39550 | 32111 ft | 417 kts | 189° |
| 2026-05-03 22:44 | 31.39769 | -84.39550 | 31422 ft | 414 kts | 189° |
| 2026-05-03 22:45 | 31.36982 | -84.39556 | 31203 ft | 423 kts | 189° |
| 2026-05-03 22:45 | 31.31159 | -84.39572 | 31127 ft | 427 kts | 188° |
| 2026-05-03 22:46 | 31.25401 | -84.39576 | 31126 ft | 427 kts | 189° |
| 2026-05-03 22:46 | 31.19680 | -84.39582 | 31126 ft | 427 kts | 189° |
| 2026-05-03 22:47 | 31.13885 | -84.39590 | 31122 ft | 427 kts | 189° |
| 2026-05-03 22:47 | 31.08123 | -84.39598 | 31127 ft | 429 kts | 189° |
| 2026-05-03 22:48 | 31.02381 | -84.39606 | 31121 ft | 428 kts | 189° |
| 2026-05-03 22:48 | 30.96590 | -84.39613 | 31120 ft | 428 kts | 189° |
| 2026-05-03 22:49 | 30.90910 | -84.39621 | 31121 ft | 428 kts | 189° |
| 2026-05-03 22:49 | 30.85160 | -84.39630 | 31122 ft | 428 kts | 189° |
| 2026-05-03 22:50 | 30.79347 | -84.39639 | 31121 ft | 430 kts | 188° |
| 2026-05-03 22:50 | 30.73477 | -84.39646 | 31122 ft | 430 kts | 188° |
| 2026-05-03 22:51 | 30.67671 | -84.39653 | 31127 ft | 430 kts | 188° |
| 2026-05-03 22:51 | 30.61829 | -84.39661 | 31123 ft | 430 kts | 188° |
| 2026-05-03 22:52 | 30.56003 | -84.39669 | 31120 ft | 429 kts | 188° |
| 2026-05-03 22:52 | 30.51957 | -84.39674 | 31118 ft | 429 kts | 188° |
| 2026-05-03 22:55 | 30.48689 | -84.39678 | 31115 ft | 429 kts | 188° |
| 2026-05-03 22:55 | 30.42882 | -84.39686 | 31117 ft | 429 kts | 188° |
| 2026-05-03 22:56 | 30.37127 | -84.39617 | 31113 ft | 435 kts | 183° |
| 2026-05-03 22:56 | 30.34189 | -84.38959 | 31111 ft | 449 kts | 172° |
| 2026-05-03 22:56 | 30.31337 | -84.37603 | 31111 ft | 464 kts | 161° |
| 2026-05-03 22:56 | 30.28721 | -84.35608 | 31106 ft | 477 kts | 150° |
| 2026-05-03 22:57 | 30.26254 | -84.33207 | 31098 ft | 483 kts | 148° |
| 2026-05-03 22:57 | 30.21337 | -84.28198 | 31096 ft | 484 kts | 147° |
| 2026-05-03 22:58 | 30.16332 | -84.23168 | 31108 ft | 484 kts | 148° |
| 2026-05-03 22:58 | 30.11380 | -84.18259 | 31108 ft | 483 kts | 148° |
| 2026-05-03 22:59 | 30.06472 | -84.13414 | 31108 ft | 483 kts | 148° |
| 2026-05-03 22:59 | 30.01470 | -84.08483 | 31105 ft | 483 kts | 148° |
| 2026-05-03 23:00 | 29.96337 | -84.03428 | 31083 ft | 483 kts | 148° |
| 2026-05-03 23:00 | 29.91328 | -83.98503 | 31094 ft | 484 kts | 148° |
| 2026-05-03 23:01 | 29.86304 | -83.93570 | 31098 ft | 484 kts | 148° |
| 2026-05-03 23:01 | 29.81284 | -83.89007 | 31101 ft | 475 kts | 156° |
| 2026-05-03 23:02 | 29.75756 | -83.85370 | 31100 ft | 470 kts | 160° |
| 2026-05-03 23:02 | 29.70196 | -83.81794 | 31104 ft | 470 kts | 160° |
| 2026-05-03 23:03 | 29.64663 | -83.78227 | 31096 ft | 470 kts | 160° |
| 2026-05-03 23:03 | 29.59095 | -83.74643 | 31098 ft | 470 kts | 160° |
| 2026-05-03 23:04 | 29.53519 | -83.71060 | 31099 ft | 471 kts | 160° |
| 2026-05-03 23:04 | 29.47941 | -83.67481 | 31101 ft | 471 kts | 160° |
| 2026-05-03 23:05 | 29.42401 | -83.63928 | 31003 ft | 469 kts | 160° |
| 2026-05-03 23:05 | 29.39621 | -83.62149 | 30772 ft | 470 kts | 160° |
| 2026-05-03 23:05 | 29.36842 | -83.60371 | 30514 ft | 469 kts | 160° |
| 2026-05-03 23:05 | 29.34094 | -83.58614 | 30283 ft | 468 kts | 160° |
| 2026-05-03 23:06 | 29.31409 | -83.56897 | 30043 ft | 466 kts | 160° |
| 2026-05-03 23:06 | 29.28704 | -83.55167 | 29777 ft | 464 kts | 160° |
| 2026-05-03 23:06 | 29.25993 | -83.53436 | 29508 ft | 462 kts | 160° |
| 2026-05-03 23:06 | 29.23331 | -83.51737 | 29237 ft | 460 kts | 160° |
| 2026-05-03 23:07 | 29.20625 | -83.50012 | 28980 ft | 458 kts | 160° |
| 2026-05-03 23:07 | 29.17922 | -83.48292 | 28721 ft | 457 kts | 160° |
| 2026-05-03 23:07 | 29.15248 | -83.46592 | 28468 ft | 455 kts | 160° |
| 2026-05-03 23:07 | 29.12592 | -83.44905 | 28206 ft | 453 kts | 160° |
| 2026-05-03 23:08 | 29.09920 | -83.43208 | 27955 ft | 452 kts | 160° |
| 2026-05-03 23:08 | 29.07300 | -83.41545 | 27664 ft | 451 kts | 160° |
| 2026-05-03 23:08 | 29.04631 | -83.39853 | 27428 ft | 450 kts | 160° |
| 2026-05-03 23:08 | 29.02002 | -83.38186 | 27179 ft | 448 kts | 160° |
| 2026-05-03 23:09 | 28.99386 | -83.36526 | 26934 ft | 447 kts | 160° |
| 2026-05-03 23:09 | 28.96796 | -83.34882 | 26600 ft | 446 kts | 160° |
| 2026-05-03 23:09 | 28.94138 | -83.33199 | 25853 ft | 448 kts | 159° |
| 2026-05-03 23:09 | 28.91597 | -83.31591 | 25195 ft | 446 kts | 159° |
| 2026-05-03 23:10 | 28.88921 | -83.29896 | 24496 ft | 443 kts | 159° |
| 2026-05-03 23:10 | 28.86326 | -83.28253 | 23804 ft | 440 kts | 159° |
| 2026-05-03 23:10 | 28.83760 | -83.26630 | 23028 ft | 436 kts | 159° |
| 2026-05-03 23:10 | 28.81232 | -83.25029 | 22366 ft | 430 kts | 159° |
| 2026-05-03 23:11 | 28.78674 | -83.23412 | 21649 ft | 424 kts | 158° |
| 2026-05-03 23:11 | 28.76191 | -83.21844 | 20995 ft | 418 kts | 158° |
| 2026-05-03 23:11 | 28.73698 | -83.20271 | 20265 ft | 414 kts | 158° |
| 2026-05-03 23:11 | 28.71252 | -83.18730 | 19610 ft | 409 kts | 158° |
| 2026-05-03 23:12 | 28.68849 | -83.17217 | 18952 ft | 405 kts | 158° |
| 2026-05-03 23:12 | 28.66502 | -83.15740 | 18275 ft | 401 kts | 158° |
| 2026-05-03 23:12 | 28.64137 | -83.14251 | 17534 ft | 397 kts | 158° |
| 2026-05-03 23:12 | 28.62641 | -83.13309 | 17119 ft | 393 kts | 158° |
| 2026-05-03 23:13 | 28.59618 | -83.11407 | 16235 ft | 386 kts | 158° |
| 2026-05-03 23:13 | 28.57364 | -83.09991 | 15582 ft | 382 kts | 158° |
| 2026-05-03 23:13 | 28.55188 | -83.08626 | 14904 ft | 380 kts | 157° |
| 2026-05-03 23:13 | 28.53995 | -83.07877 | 14596 ft | 377 kts | 157° |
| 2026-05-03 23:14 | 28.53713 | -83.07701 | 14518 ft | 377 kts | 157° |
| 2026-05-03 23:14 | 28.51546 | -83.06342 | 13869 ft | 375 kts | 157° |
| 2026-05-03 23:15 | 28.49325 | -83.04953 | 13198 ft | 370 kts | 156° |
| 2026-05-03 23:15 | 28.47249 | -83.03655 | 12590 ft | 366 kts | 156° |
| 2026-05-03 23:15 | 28.45113 | -83.02317 | 11980 ft | 363 kts | 156° |
| 2026-05-03 23:15 | 28.43008 | -83.00999 | 11356 ft | 360 kts | 155° |
| 2026-05-03 23:16 | 28.40854 | -82.99650 | 10729 ft | 358 kts | 155° |
| 2026-05-03 23:16 | 28.38780 | -82.98348 | 10493 ft | 345 kts | 155° |
| 2026-05-03 23:16 | 28.36811 | -82.97109 | 10350 ft | 330 kts | 155° |
| 2026-05-03 23:16 | 28.34908 | -82.95913 | 10217 ft | 315 kts | 155° |
| 2026-05-03 23:17 | 28.33079 | -82.94767 | 9899 ft | 309 kts | 155° |
| 2026-05-03 23:17 | 28.31248 | -82.93623 | 9646 ft | 301 kts | 155° |
| 2026-05-03 23:17 | 28.29455 | -82.92504 | 9549 ft | 303 kts | 155° |
| 2026-05-03 23:17 | 28.27630 | -82.91298 | 9445 ft | 305 kts | 149° |
| 2026-05-03 23:18 | 28.25997 | -82.89761 | 9301 ft | 306 kts | 138° |
| 2026-05-03 23:18 | 28.24484 | -82.88063 | 9102 ft | 304 kts | 138° |
| 2026-05-03 23:18 | 28.23013 | -82.86423 | 8909 ft | 302 kts | 138° |
| 2026-05-03 23:18 | 28.21581 | -82.84834 | 8717 ft | 302 kts | 138° |
| 2026-05-03 23:19 | 28.20122 | -82.83222 | 8531 ft | 300 kts | 138° |
| 2026-05-03 23:19 | 28.18657 | -82.81605 | 8350 ft | 299 kts | 138° |
| 2026-05-03 23:19 | 28.17239 | -82.80039 | 8156 ft | 298 kts | 137° |
| 2026-05-03 23:19 | 28.15786 | -82.78436 | 7970 ft | 297 kts | 137° |
| 2026-05-03 23:20 | 28.14347 | -82.76849 | 7786 ft | 293 kts | 137° |
| 2026-05-03 23:20 | 28.12974 | -82.75336 | 7609 ft | 291 kts | 137° |
| 2026-05-03 23:20 | 28.11556 | -82.73774 | 7408 ft | 290 kts | 137° |
| 2026-05-03 23:20 | 28.10145 | -82.72219 | 7234 ft | 288 kts | 136° |
| 2026-05-03 23:21 | 28.08736 | -82.70669 | 7045 ft | 287 kts | 136° |
| 2026-05-03 23:21 | 28.07363 | -82.69156 | 6880 ft | 286 kts | 136° |
| 2026-05-03 23:21 | 28.05997 | -82.67606 | 6698 ft | 286 kts | 135° |
| 2026-05-03 23:21 | 28.04647 | -82.66047 | 6522 ft | 280 kts | 134° |
| 2026-05-03 23:22 | 28.01988 | -82.62978 | 6146 ft | 278 kts | 136° |
| 2026-05-03 23:22 | 28.00355 | -82.61804 | 5974 ft | 282 kts | 161° |
| 2026-05-03 23:22 | 27.98459 | -82.61536 | 5800 ft | 278 kts | 181° |
| 2026-05-03 23:23 | 27.96526 | -82.61614 | 5656 ft | 272 kts | 182° |
| 2026-05-03 23:23 | 27.94684 | -82.61709 | 5564 ft | 261 kts | 182° |
| 2026-05-03 23:23 | 27.93006 | -82.61792 | 5481 ft | 250 kts | 182° |
| 2026-05-03 23:23 | 27.91349 | -82.61867 | 5381 ft | 240 kts | 182° |
| 2026-05-03 23:24 | 27.90810 | -82.61890 | 5331 ft | 236 kts | 182° |
| 2026-05-03 23:24 | 27.90047 | -82.61922 | 5198 ft | 234 kts | 181° |
| 2026-05-03 23:25 | 27.88538 | -82.61982 | 5039 ft | 229 kts | 181° |
| 2026-05-03 23:25 | 27.86977 | -82.62043 | 5009 ft | 234 kts | 181° |
| 2026-05-03 23:25 | 27.85404 | -82.62101 | 5008 ft | 234 kts | 181° |
| 2026-05-03 23:25 | 27.83843 | -82.62160 | 4989 ft | 237 kts | 181° |
| 2026-05-03 23:26 | 27.82271 | -82.62220 | 4988 ft | 232 kts | 181° |
| 2026-05-03 23:26 | 27.80688 | -82.62281 | 4988 ft | 233 kts | 181° |
| 2026-05-03 23:26 | 27.79166 | -82.62340 | 4990 ft | 233 kts | 181° |
| 2026-05-03 23:26 | 27.77645 | -82.62399 | 4988 ft | 234 kts | 181° |
| 2026-05-03 23:27 | 27.76107 | -82.62430 | 4977 ft | 234 kts | 174° |
| 2026-05-03 23:27 | 27.74651 | -82.61914 | 4989 ft | 233 kts | 146° |
| 2026-05-03 23:27 | 27.73614 | -82.60635 | 4987 ft | 227 kts | 114° |
| 2026-05-03 23:27 | 27.73326 | -82.59047 | 4989 ft | 225 kts | 83° |
| 2026-05-03 23:28 | 27.73824 | -82.57465 | 4989 ft | 224 kts | 52° |
| 2026-05-03 23:28 | 27.74955 | -82.56397 | 4991 ft | 224 kts | 25° |
| 2026-05-03 23:28 | 27.76320 | -82.55675 | 5004 ft | 210 kts | 24° |
| 2026-05-03 23:28 | 27.77619 | -82.55050 | 4987 ft | 202 kts | 16° |
| 2026-05-03 23:29 | 27.78970 | -82.54805 | 4998 ft | 202 kts | 4° |
| 2026-05-03 23:29 | 27.80332 | -82.54761 | 4996 ft | 199 kts | 1° |
| 2026-05-03 23:29 | 27.81611 | -82.54725 | 4968 ft | 173 kts | 2° |
| 2026-05-03 23:29 | 27.82713 | -82.54693 | 4818 ft | 152 kts | 2° |
| 2026-05-03 23:30 | 27.83723 | -82.54672 | 4671 ft | 144 kts | 1° |
| 2026-05-03 23:30 | 27.84667 | -82.54673 | 4286 ft | 140 kts | 2° |
| 2026-05-03 23:30 | 27.85655 | -82.54655 | 3893 ft | 158 kts | 2° |
| 2026-05-03 23:30 | 27.86689 | -82.54611 | 3429 ft | 152 kts | 4° |
| 2026-05-03 23:31 | 27.87714 | -82.54559 | 2947 ft | 158 kts | 5° |
| 2026-05-03 23:31 | 27.88905 | -82.54481 | 2503 ft | 179 kts | 6° |
| 2026-05-03 23:31 | 27.90020 | -82.54407 | 2094 ft | 157 kts | 5° |
| 2026-05-03 23:31 | 27.91034 | -82.54425 | 1665 ft | 147 kts | 1° |
| 2026-05-03 23:32 | 27.91991 | -82.54446 | 1289 ft | 142 kts | 4° |
| 2026-05-03 23:32 | 27.93009 | -82.54384 | 997 ft | 144 kts | 5° |
| 2026-05-03 23:32 | 27.93945 | -82.54318 | 651 ft | 136 kts | 4° |
| 2026-05-03 23:32 | 27.94895 | -82.54302 | 416 ft | 150 kts | 2° |
| 2026-05-03 23:33 | 27.95861 | -82.54244 | 164 ft | 136 kts | 1° |
| 2026-05-03 23:33 | 27.96710 | -82.54224 | 47 ft | 118 kts | 2° |
| 2026-05-03 23:33 | 27.97431 | -82.54199 | 36 ft | 83 kts | 2° |
| 2026-05-03 23:33 | 27.97843 | -82.54176 | 34 ft | 41 kts | 23° |
| 2026-05-03 23:34 | 27.97867 | -82.54051 | 33 ft | 15 kts | 149° |
| 2026-05-03 23:34 | 27.97827 | -82.53965 | 32 ft | 15 kts | 124° |
| 2026-05-03 23:34 | 27.97805 | -82.53872 | 33 ft | 7 kts | 101° |
| 2026-05-03 23:34 | 27.97859 | -82.53839 | 35 ft | 10 kts | 356° |
| 2026-05-03 23:35 | 27.97892 | -82.53842 | 35 ft | 0 kts | 359° |